地図

経路データ

SID SEASON NUMBER BASIN SUBBASIN NAME ISO_TIME NATURE LAT LON WMO_WIND WMO_PRES WMO_AGENCY TRACK_TYPE DIST2LAND LANDFALL IFLAG USA_AGENCY USA_ATCF_ID USA_LAT USA_LON USA_RECORD USA_STATUS USA_WIND USA_PRES USA_SSHS USA_R34_NE USA_R34_SE USA_R34_SW USA_R34_NW USA_R50_NE USA_R50_SE USA_R50_SW USA_R50_NW USA_R64_NE USA_R64_SE USA_R64_SW USA_R64_NW USA_POCI USA_ROCI USA_RMW USA_EYE TOKYO_LAT TOKYO_LON TOKYO_GRADE TOKYO_WIND TOKYO_PRES TOKYO_R50_DIR TOKYO_R50_LONG TOKYO_R50_SHORT TOKYO_R30_DIR TOKYO_R30_LONG TOKYO_R30_SHORT TOKYO_LAND CMA_LAT CMA_LON CMA_CAT CMA_WIND CMA_PRES HKO_LAT HKO_LON HKO_CAT HKO_WIND HKO_PRES NEWDELHI_LAT NEWDELHI_LON NEWDELHI_GRADE NEWDELHI_WIND NEWDELHI_PRES NEWDELHI_CI NEWDELHI_DP NEWDELHI_POCI REUNION_LAT REUNION_LON REUNION_TYPE REUNION_WIND REUNION_PRES REUNION_TNUM REUNION_CI REUNION_RMW REUNION_R34_NE REUNION_R34_SE REUNION_R34_SW REUNION_R34_NW REUNION_R50_NE REUNION_R50_SE REUNION_R50_SW REUNION_R50_NW REUNION_R64_NE REUNION_R64_SE REUNION_R64_SW REUNION_R64_NW BOM_LAT BOM_LON BOM_TYPE BOM_WIND BOM_PRES BOM_TNUM BOM_CI BOM_RMW BOM_R34_NE BOM_R34_SE BOM_R34_SW BOM_R34_NW BOM_R50_NE BOM_R50_SE BOM_R50_SW BOM_R50_NW BOM_R64_NE BOM_R64_SE BOM_R64_SW BOM_R64_NW BOM_ROCI BOM_POCI BOM_EYE BOM_POS_METHOD BOM_PRES_METHOD NADI_LAT NADI_LON NADI_CAT NADI_WIND NADI_PRES WELLINGTON_LAT WELLINGTON_LON WELLINGTON_WIND WELLINGTON_PRES DS824_LAT DS824_LON DS824_STAGE DS824_WIND DS824_PRES TD9636_LAT TD9636_LON TD9636_STAGE TD9636_WIND TD9636_PRES TD9635_LAT TD9635_LON TD9635_WIND TD9635_PRES TD9635_ROCI NEUMANN_LAT NEUMANN_LON NEUMANN_CLASS NEUMANN_WIND NEUMANN_PRES MLC_LAT MLC_LON MLC_CLASS MLC_WIND MLC_PRES USA_GUST BOM_GUST BOM_GUST_PER REUNION_GUST REUNION_GUST_PER USA_SEAHGT USA_SEARAD_NE USA_SEARAD_SE USA_SEARAD_SW USA_SEARAD_NW STORM_SPEED STORM_DIR
1854303N14072 1854 16 NI AS NOT_NAMED 1854-10-30 03:00:00 NR 13.7000 72.2000 main 239 227 __________O___ -1 13.7000 72.2000 7 7 345
1854303N14072 1854 16 NI AS NOT_NAMED 1854-10-30 06:00:00 NR 14.0500 72.0969 main 229 218 __________P___ -1 14.0500 72.0969 7 7 343
1854303N14072 1854 16 NI AS NOT_NAMED 1854-10-30 09:00:00 NR 14.3999 71.9849 main 218 215 __________P___ -1 14.3999 71.9849 7 7 342
1854303N14072 1854 16 NI AS NOT_NAMED 1854-10-30 12:00:00 NR 14.7499 71.8555 main 217 214 __________P___ -1 14.7499 71.8555 7 8 339
1854303N14072 1854 16 NI AS NOT_NAMED 1854-10-30 15:00:00 NR 15.1000 71.7000 main 221 217 __________O___ -1 15.1000 71.7000 7 8 335
1854303N14072 1854 16 NI AS NOT_NAMED 1854-10-30 18:00:00 NR 15.4485 71.5153 main 228 217 __________P___ -1 15.4485 71.5153 7 8 332
1854303N14072 1854 16 NI AS NOT_NAMED 1854-10-30 21:00:00 NR 15.7876 71.3204 main 227 223 __________P___ -1 15.7876 71.3204 7 8 331
1854303N14072 1854 16 NI AS NOT_NAMED 1854-10-31 00:00:00 NR 16.1079 71.1403 main 239 235 __________P___ -1 16.1079 71.1403 7 7 333
1854303N14072 1854 16 NI AS NOT_NAMED 1854-10-31 03:00:00 NR 16.4000 71.0000 main 245 245 __________O___ -1 16.4000 71.0000 7 6 340
1854303N14072 1854 16 NI AS NOT_NAMED 1854-10-31 06:00:00 NR 16.6658 70.9315 main 254 246 __________P___ -1 16.6658 70.9315 7 5 350
1854303N14072 1854 16 NI AS NOT_NAMED 1854-10-31 09:00:00 NR 16.9024 70.9046 main 246 240 __________P___ -1 16.9024 70.9046 7 5 354
1854303N14072 1854 16 NI AS NOT_NAMED 1854-10-31 12:00:00 NR 17.1127 70.9004 main 240 234 __________P___ -1 17.1127 70.9004 7 4 0
1854303N14072 1854 16 NI AS NOT_NAMED 1854-10-31 15:00:00 NR 17.3000 70.9000 main 234 229 __________O___ -1 17.3000 70.9000 7 4 349
1854303N14072 1854 16 NI AS NOT_NAMED 1854-10-31 18:00:00 NR 17.4552 70.8266 main 235 232 __________P___ -1 17.4552 70.8266 7 3 335
1854303N14072 1854 16 NI AS NOT_NAMED 1854-10-31 21:00:00 NR 17.5923 70.7606 main 232 232 __________P___ -1 17.5923 70.7606 7 3 345
1854303N14072 1854 16 NI AS NOT_NAMED 1854-11-01 00:00:00 NR 17.7332 70.7393 main 239 224 __________P___ -1 17.7332 70.7393 7 3 5
1854303N14072 1854 16 NI AS NOT_NAMED 1854-11-01 03:00:00 NR 17.9000 70.8000 main 224 201 __________O___ -1 17.9000 70.8000 7 5 30
1854303N14072 1854 16 NI AS NOT_NAMED 1854-11-01 06:00:00 NR 18.1376 70.9801 main 201 177 __________P___ -1 18.1376 70.9801 7 7 40
1854303N14072 1854 16 NI AS NOT_NAMED 1854-11-01 09:00:00 NR 18.4002 71.2443 main 177 140 __________P___ -1 18.4002 71.2443 7 8 46
1854303N14072 1854 16 NI AS NOT_NAMED 1854-11-01 12:00:00 NR 18.6626 71.5614 main 128 94 __________P___ -1 18.6626 71.5614 7 8 51
1854303N14072 1854 16 NI AS NOT_NAMED 1854-11-01 15:00:00 NR 18.9000 71.9000 main 94 63 __________O___ -1 18.9000 71.9000 7 8 56
1854303N14072 1854 16 NI AS NOT_NAMED 1854-11-01 18:00:00 NR 19.0938 72.2340 main 63 31 __________P___ -1 19.0938 72.2340 7 7 61
1854303N14072 1854 16 NI AS NOT_NAMED 1854-11-01 21:00:00 NR 19.2502 72.5602 main 20 0 __________P___ -1 19.2502 72.5602 7 7 65
1854303N14072 1854 16 NI AS NOT_NAMED 1854-11-02 00:00:00 NR 19.3815 72.8813 main 0 0 __________P___ -1 19.3815 72.8813 7 7 68
1854303N14072 1854 16 NI AS NOT_NAMED 1854-11-02 03:00:00 NR 19.5000 73.2000 main 0 __________O___ -1 19.5000 73.2000 7 6 69

IBTrACS Databaseについて

本データベースは、米国NOAAが公開する1842年以降の世界の熱帯低気圧のベストトラックデータアーカイブInternational Best Track Archive for Climate Stewardship (IBTrACS)を、ウェブで閲覧しやすい形式に変換したものです。

最終更新日:2021-12-03